Flight Track Log - Related Links

Times and Time Zones

All times are in EDT time to prevent confusion due to time zone crossing. See the IRO7601 flight status page for this flight to view local times or setup timezone preferences in your user account.

Time Position Orientation Groundspeed Altitude Reporting Facility
EDT Latitude Longitude Course Direction KTS MPH feet Rate Location/Type
Tue 07:54:35 PM 44.7350 -85.6228 176° South 95 109 1,400  Level Minneapolis Center
Tue 07:55:37 PM 44.6986 -85.6286 187° South 127 146 2,200 677 Climbing Minneapolis Center
Tue 07:56:39 PM 44.6617 -85.6272 178° South 130 150 2,800 581 Climbing Minneapolis Center
Tue 07:57:41 PM 44.6239 -85.6264 179° South 133 153 3,400 629 Climbing Minneapolis Center
Tue 07:58:00 PM 44.5276 -85.5753 180° South  Level Estimated
Tue 07:58:43 PM 44.5875 -85.6231 176° South 133 153 4,100  Level Minneapolis Center
Tue 07:59:00 PM 44.4920 -85.5721 176° South  Level FlightAware Approximate
Tue 07:59:45 PM 44.5483 -85.6206 177° South 125 144 4,800  Level Minneapolis Center
Tue 08:00:47 PM 44.5186 -85.6186 177° South 117 135 5,400 462 Climbing Minneapolis Center
Tue 08:01:55 PM 44.4878 -85.6164 177° South 112 129 5,800 462 Climbing Minneapolis Center
Tue 08:02:57 PM 44.4506 -85.6144 178° South 112 129 6,400 581 Climbing Minneapolis Center
Tue 08:03:59 PM 44.4178 -85.6125 178° South 116 133 7,000 290 Climbing Minneapolis Center
Tue 08:05:01 PM 44.3811 -85.6128 180° South 127 146 7,000  Level Minneapolis Center
Tue 08:06:02 PM 44.3389 -85.6094 177° South 145 167 7,000  Level Minneapolis Center
Tue 08:07:04 PM 44.2978 -85.6061 177° South 149 171 7,000  Level Minneapolis Center
Tue 08:08:06 PM 44.2567 -85.6039 178° South 148 170 7,000  Level Minneapolis Center
Tue 08:09:08 PM 44.2169 -85.6003 176° South 145 167 7,000  Level Minneapolis Center
Tue 08:10:10 PM 44.1697 -85.5967 177° South 142 163 7,000  Level Minneapolis Center
Tue 08:11:11 PM 44.1306 -85.5961 179° South 141 162 7,000  Level Minneapolis Center
Tue 08:12:13 PM 44.0928 -85.5922 176° South 138 159 7,000  Level Minneapolis Center
Tue 08:13:15 PM 44.0569 -85.5914 179° South 138 159 7,000  Level Minneapolis Center
Tue 08:14:17 PM 44.0169 -85.5886 177° South 142 163 7,000 -194 Level Minneapolis Center
Tue 08:15:19 PM 43.9689 -85.5869 179° South 144 166 6,600 -387 Descending Minneapolis Center
Tue 08:16:21 PM 43.9247 -85.5867 180° South 154 177 6,200 -290 Descending Minneapolis Center
Tue 08:17:23 PM 43.8822 -85.5853 179° South 154 177 6,000 -97 Descending Minneapolis Center
Tue 08:18:25 PM 43.8419 -85.5800 175° South 148 170 6,000  Level Minneapolis Center
Tue 08:19:27 PM 43.8028 -85.5772 177° South 143 165 6,000 -49 Level Minneapolis Center
Tue 08:20:28 PM 43.7636 -85.5744 177° South 141 162 5,900 -49 Descending Minneapolis Center
Tue 08:21:30 PM 43.7172 -85.5725 178° South 140 161 5,900  Level Minneapolis Center
Tue 08:22:32 PM 43.6786 -85.5708 178° South 140 161 5,900  Level Minneapolis Center
Tue 08:23:34 PM 43.6403 -85.5675 176° South 139 160 5,900  Level Minneapolis Center
Tue 08:24:36 PM 43.6008 -85.5669 179° South 140 161 5,900  Level Minneapolis Center
Tue 08:25:38 PM 43.5617 -85.5625 175° South 142 163 5,900  Level Minneapolis Center
Tue 08:26:40 PM 43.5222 -85.5631 181° South 141 162 5,900  Level Minneapolis Center
Tue 08:27:42 PM 43.4750 -85.5594 177° South 141 162 5,900  Level Minneapolis Center
Tue 08:28:44 PM 43.4364 -85.5561 176° South 140 161 5,900  Level Minneapolis Center
Tue 08:29:46 PM 43.3981 -85.5531 177° South 138 159 5,900  Level Minneapolis Center
Tue 08:30:31 PM 43.3664 -85.5514 178° South 140 161 5,900  Level Chicago Center
Tue 08:31:33 PM 43.3272 -85.5492 178° South 142 163 5,900  Level Chicago Center
Tue 08:32:35 PM 43.2872 -85.5458 177° South 143 165 5,900  Level Chicago Center
Tue 08:33:36 PM 43.2467 -85.5439 178° South 145 167 5,900  Level Chicago Center
Tue 08:34:38 PM 43.2164 -85.5042 136° Southeast 154 177 5,900  Level Chicago Center
Tue 08:35:40 PM 43.1903 -85.4528 125° Southeast 162 186 5,900  Level Chicago Center
Tue 08:36:42 PM 43.1650 -85.4022 124° Southeast 161 185 5,900  Level Chicago Center
Tue 08:37:44 PM 43.1406 -85.3489 122° Southeast 163 188 5,900 -194 Level Chicago Center
Tue 08:38:46 PM 43.1003 -85.3078 143° Southeast 158 182 5,500 -435 Descending Chicago Center
Tue 08:39:48 PM 43.0597 -85.2900 162° South 153 176 5,000 -532 Descending Chicago Center
Tue 08:40:50 PM 43.0172 -85.2761 167° South 155 178 4,400 -581 Descending Chicago Center
Tue 08:41:52 PM 42.9747 -85.2686 173° South 155 178 3,800 -585 Descending Chicago Center
Tue 08:42:53 PM 42.9336 -85.2819 193° South 153 176 3,200 -585 Descending Chicago Center
Tue 08:43:55 PM 42.9044 -85.3203 224° Southwest 151 174 2,600 -290 Descending Chicago Center
Tue 08:44:57 PM 42.8931 -85.3811 256° West 145 167 2,600 -339 Level Chicago Center
Tue 08:45:59 PM 42.8889 -85.4314 264° West 138 159 1,900 -677 Descending Chicago Center
Tue 08:47:01 PM 42.8831 -85.4811 261° West 135 155 1,200 -484 Descending Chicago Center
Tue 08:48:03 PM 42.8781 -85.5253 261° West 133 153 900 -290 Descending Chicago Center

Login

Don't have an account? Register now (free) for customized features, flight alerts, and more!